Finikia — YKRO — position and weather

sailwx.info

Track history (hours):
 
Tides and Currents Weather Stations Pressure Air Temp Water Temp Dewpoint Dewpoint Depression Visibility Wind Speed Wind Dir Waves Ship Positions

Finikia

Last reported at 2016-Apr-30 04:21 UTC. Time now 2016-Apr-30 05:19 UTC.
Position N 44°36' E 037°56'.

Length 138 m; draft 5.6 m.

Type: Cargo ship. MMSI: 468395000.

Date/timePositionNaut miles runAvg speedWind from/ knotsBaromVisibWave heightAir tempDewpointWater temp
2016-Apr-30 04:21N 44°36' E 037°56'0 0.0
2016-Apr-30 03:24N 44°36' E 037°56'0 0.0
2016-Apr-29 23:09N 44°36' E 037°56'0 0.0
2016-Apr-29 22:33N 44°36' E 037°56'0 0.0
2016-Apr-29 21:03N 44°36' E 037°56'0 0.0
2016-Apr-29 20:09N 44°36' E 037°56'0 0.0
2016-Apr-29 19:21N 44°36' E 037°56'0 0.0
2016-Apr-29 16:24N 44°36' E 037°56'0 0.1
2016-Apr-29 15:30N 44°36' E 037°56'0 0.0
2016-Apr-29 14:33N 44°36' E 037°56'0 0.0
2016-Apr-29 12:18N 44°36' E 037°56'0 0.0
2016-Apr-29 11:33N 44°36' E 037°56'0 0.0
2016-Apr-29 10:33N 44°36' E 037°56'0 0.0
2016-Apr-29 09:33N 44°36' E 037°56'0 0.0
2016-Apr-29 08:33N 44°36' E 037°56'0 0.1
2016-Apr-29 07:33N 44°36' E 037°56'0 0.0
2016-Apr-29 06:30N 44°36' E 037°56'0 0.0
2016-Apr-28 21:33N 44°36' E 037°56'0 0.0
2016-Apr-28 16:33N 44°36' E 037°56'0 0.0
2016-Apr-28 15:33N 44°36' E 037°56'0 0.0
2016-Apr-28 14:33N 44°36' E 037°56'0 0.0
2016-Apr-28 13:33N 44°36' E 037°56'0 0.0
2016-Apr-28 12:33N 44°36' E 037°56'0 0.0
2016-Apr-28 11:33N 44°36' E 037°56'0 0.0
2016-Apr-28 10:30N 44°36' E 037°56'0 0.0
2016-Apr-28 09:33N 44°36' E 037°56'0 0.0
2016-Apr-28 08:33N 44°36' E 037°56'0 0.0
2016-Apr-28 07:33N 44°36' E 037°56'0 0.1
2016-Apr-28 06:33N 44°36' E 037°56'3 2.7
2016-Apr-28 05:33N 44°35' E 037°52'1 0.1
2016-Apr-27 15:32N 44°34' E 037°51'5 4.6
2016-Apr-27 14:32N 44°34' E 037°58'0 0.0
2016-Apr-27 13:11N 44°34' E 037°57'0 0.0
2016-Apr-27 05:26N 44°34' E 037°57'0 0.0
2016-Apr-27 04:32N 44°34' E 037°57'0 0.0
2016-Apr-27 03:32N 44°34' E 037°57'0 0.0
2016-Apr-26 12:17N 44°34' E 037°57'0 0.0
2016-Apr-25 15:23N 44°34' E 037°57'0 0.0
2016-Apr-25 14:32N 44°34' E 037°57'0 0.0
2016-Apr-25 13:32N 44°34' E 037°57'0 0.0
2016-Apr-24 16:11N 44°34' E 037°57'0 0.0
2016-Apr-24 09:32N 44°34' E 037°57'0 0.0
2016-Apr-24 08:26N 44°34' E 037°57'0 0.0
2016-Apr-24 04:26N 44°34' E 037°57'0 0.2
2016-Apr-24 03:32N 44°34' E 037°57'0 0.0
2016-Apr-24 02:17N 44°34' E 037°57'0 0.0
2016-Apr-23 16:14N 44°34' E 037°57'0 0.0
2016-Apr-23 15:26N 44°34' E 037°57'0 0.0
2016-Apr-23 13:14N 44°34' E 037°57'0 0.0
2016-Apr-21 20:17N 44°34' E 037°57'0 0.0
2016-Apr-21 19:29N 44°34' E 037°57'0 0.0
2016-Apr-21 18:29N 44°34' E 037°57'0 0.0
2016-Apr-21 16:32N 44°34' E 037°57'0 0.0
2016-Apr-21 15:32N 44°34' E 037°57'0 0.0
2016-Apr-21 14:26N 44°34' E 037°57'0 0.0
2016-Apr-21 13:32N 44°34' E 037°57'0 0.0
2016-Apr-21 12:32N 44°34' E 037°57'0 0.0
2016-Apr-21 11:29N 44°34' E 037°57'0 0.0
2016-Apr-21 10:29N 44°34' E 037°57'4 0.5
2016-Apr-21 02:07N 44°36' E 037°52'2 3.2
2016-Apr-21 01:27N 44°36' E 037°55'0 0.0
2016-Apr-21 00:33N 44°36' E 037°55'0 0.1
2016-Apr-20 23:33N 44°36' E 037°55'0 0.1
2016-Apr-20 22:30N 44°36' E 037°55'0 0.0
2016-Apr-20 15:24N 44°36' E 037°55'0 0.0
2016-Apr-20 14:30N 44°36' E 037°55'0 0.0
2016-Apr-20 13:15N 44°36' E 037°55'0 0.0
2016-Apr-20 12:27N 44°36' E 037°55'0 0.0
2016-Apr-20 11:33N 44°36' E 037°55'0 0.0
2016-Apr-20 10:27N 44°36' E 037°55'0 0.0
2016-Apr-20 09:03N 44°36' E 037°55'0 0.0
2016-Apr-20 08:24N 44°36' E 037°55'0 0.0
2016-Apr-20 07:33N 44°36' E 037°55'0 0.0
2016-Apr-20 05:24N 44°36' E 037°55'  
Track history (hours):
 
Tides and Currents Weather Stations Pressure Air Temp Water Temp Dewpoint Dewpoint Depression Visibility Wind Speed Wind Dir Waves Ship Positions

Finikia

Last reported at 2016-Apr-30 04:21 UTC. Time now 2016-Apr-30 05:19 UTC.
Position N 44°36' E 037°56'.

Length 138 m; draft 5.6 m.

Type: Cargo ship. MMSI: 468395000.

Date/timePositionNaut miles runAvg speedWind from/ knotsBaromVisibWave heightAir tempDewpointWater temp
2016-Apr-30 04:21N 44°36' E 037°56'0 0.0
2016-Apr-30 03:24N 44°36' E 037°56'0 0.0
2016-Apr-29 23:09N 44°36' E 037°56'0 0.0
2016-Apr-29 22:33N 44°36' E 037°56'0 0.0
2016-Apr-29 21:03N 44°36' E 037°56'0 0.0
2016-Apr-29 20:09N 44°36' E 037°56'0 0.0
2016-Apr-29 19:21N 44°36' E 037°56'0 0.0
2016-Apr-29 16:24N 44°36' E 037°56'0 0.1
2016-Apr-29 15:30N 44°36' E 037°56'0 0.0
2016-Apr-29 14:33N 44°36' E 037°56'0 0.0
2016-Apr-29 12:18N 44°36' E 037°56'0 0.0
2016-Apr-29 11:33N 44°36' E 037°56'0 0.0
2016-Apr-29 10:33N 44°36' E 037°56'0 0.0
2016-Apr-29 09:33N 44°36' E 037°56'0 0.0
2016-Apr-29 08:33N 44°36' E 037°56'0 0.1
2016-Apr-29 07:33N 44°36' E 037°56'0 0.0
2016-Apr-29 06:30N 44°36' E 037°56'0 0.0
2016-Apr-28 21:33N 44°36' E 037°56'0 0.0
2016-Apr-28 16:33N 44°36' E 037°56'0 0.0
2016-Apr-28 15:33N 44°36' E 037°56'0 0.0
2016-Apr-28 14:33N 44°36' E 037°56'0 0.0
2016-Apr-28 13:33N 44°36' E 037°56'0 0.0
2016-Apr-28 12:33N 44°36' E 037°56'0 0.0
2016-Apr-28 11:33N 44°36' E 037°56'0 0.0
2016-Apr-28 10:30N 44°36' E 037°56'0 0.0
2016-Apr-28 09:33N 44°36' E 037°56'0 0.0
2016-Apr-28 08:33N 44°36' E 037°56'0 0.0
2016-Apr-28 07:33N 44°36' E 037°56'0 0.1
2016-Apr-28 06:33N 44°36' E 037°56'3 2.7
2016-Apr-28 05:33N 44°35' E 037°52'1 0.1
2016-Apr-27 15:32N 44°34' E 037°51'5 4.6
2016-Apr-27 14:32N 44°34' E 037°58'0 0.0
2016-Apr-27 13:11N 44°34' E 037°57'0 0.0
2016-Apr-27 05:26N 44°34' E 037°57'0 0.0
2016-Apr-27 04:32N 44°34' E 037°57'0 0.0
2016-Apr-27 03:32N 44°34' E 037°57'0 0.0
2016-Apr-26 12:17N 44°34' E 037°57'0 0.0
2016-Apr-25 15:23N 44°34' E 037°57'0 0.0
2016-Apr-25 14:32N 44°34' E 037°57'0 0.0
2016-Apr-25 13:32N 44°34' E 037°57'0 0.0
2016-Apr-24 16:11N 44°34' E 037°57'0 0.0
2016-Apr-24 09:32N 44°34' E 037°57'0 0.0
2016-Apr-24 08:26N 44°34' E 037°57'0 0.0
2016-Apr-24 04:26N 44°34' E 037°57'0 0.2
2016-Apr-24 03:32N 44°34' E 037°57'0 0.0
2016-Apr-24 02:17N 44°34' E 037°57'0 0.0
2016-Apr-23 16:14N 44°34' E 037°57'0 0.0
2016-Apr-23 15:26N 44°34' E 037°57'0 0.0
2016-Apr-23 13:14N 44°34' E 037°57'0 0.0
2016-Apr-21 20:17N 44°34' E 037°57'0 0.0
2016-Apr-21 19:29N 44°34' E 037°57'0 0.0
2016-Apr-21 18:29N 44°34' E 037°57'0 0.0
2016-Apr-21 16:32N 44°34' E 037°57'0 0.0
2016-Apr-21 15:32N 44°34' E 037°57'0 0.0
2016-Apr-21 14:26N 44°34' E 037°57'0 0.0
2016-Apr-21 13:32N 44°34' E 037°57'0 0.0
2016-Apr-21 12:32N 44°34' E 037°57'0 0.0
2016-Apr-21 11:29N 44°34' E 037°57'0 0.0
2016-Apr-21 10:29N 44°34' E 037°57'4 0.5
2016-Apr-21 02:07N 44°36' E 037°52'2 3.2
2016-Apr-21 01:27N 44°36' E 037°55'0 0.0
2016-Apr-21 00:33N 44°36' E 037°55'0 0.1
2016-Apr-20 23:33N 44°36' E 037°55'0 0.1
2016-Apr-20 22:30N 44°36' E 037°55'0 0.0
2016-Apr-20 15:24N 44°36' E 037°55'0 0.0
2016-Apr-20 14:30N 44°36' E 037°55'0 0.0
2016-Apr-20 13:15N 44°36' E 037°55'0 0.0
2016-Apr-20 12:27N 44°36' E 037°55'0 0.0
2016-Apr-20 11:33N 44°36' E 037°55'0 0.0
2016-Apr-20 10:27N 44°36' E 037°55'0 0.0
2016-Apr-20 09:03N 44°36' E 037°55'0 0.0
2016-Apr-20 08:24N 44°36' E 037°55'0 0.0
2016-Apr-20 07:33N 44°36' E 037°55'0 0.0
2016-Apr-20 05:24N 44°36' E 037°55'  

Dump ship's entire track history